Arlington, Texas
Current Conditions -  °F | °C
As of 11:50 AM on Monday 26 Jan 2015 (Local Time) from KGPM Reporting Station
Clear Clear  
Wind Chill: 61°   Ceiling: Unl
Heat Index: 61°   Visibility: 10mi
Dew Point: 34°   Wind: 7mph
Humidity: 36%   Direction: 210°SSW
Pressure: 30.21"   Gusts: NA
Location:  32.74°N, 97.11°W
Report Text: KGPM 261750Z 21006KT 10SM SKC 16/01 A3021
Loading
Personal Weather Stations






























Interactive Weather Map New forecast layout! Learn more

10-Day Weather Forecast

Advertisements
Track Severe Weather on mobile